Watts, OK (74964)

5:14 PM CST on February 12, 2016 (GMT -0600)
Lake Forrest Heights | | Change Station
CLOSE
Current Station
Personal Weather Station
Location: Siloam Springs, AR
Elevation: 1148 ft
Nearby Weather Stations

Elev 1148 ft 36.22 °N, 94.54 °W | Updated 14 seconds ago

Clear
Clear
46.2 °F
Feels Like 42 °F
N
7.8
Wind Variable Wind from NNE

Today
High -- | Low -- °F
--% Chance of Precip.
Yesterday
High -- | Low -- °F
Precip. -- in
Pressure 30.38 in
Visibility 10.0 miles
Clouds Clear
Windchill 42 °F
Dew Point 25 °F
Humidity 43%
Rainfall 0.00 in
Snow Depth Not available.
7:09 AM 5:56 PM
Waxing Crescent, 24% visible
METAR KSLG 122255Z AUTO 36009KT 10SM CLR 08/M05 A3038 RMK AO1
Pressure 30.38 in
Visibility 10.0 miles
Clouds Clear
Windchill 42 °F
Dew Point 25 °F
Humidity 43%
Rainfall 0.00 in
Snow Depth Not available.
7:09 AM 5:56 PM
Waxing Crescent, 24% visible
METAR KSLG 122255Z AUTO 36009KT 10SM CLR 08/M05 A3038 RMK AO1

10-Day Weather Forecast

Almanac

Astronomy

Feb. 12, 2016 Rise Set
Actual Time
Civil Twilight
Nautical Twilight
Astronomical Twilight
Moon
Length of Visible Light
Length of Day
Tomorrow will be .
, % of the Moon is Illuminated

Today's Extremes

State Highs State Lows

Community

WunderPhotos

Upload Photos

1,892,431 photos uploaded!

WunderBlog® & News

Nearby

Air Quality

  Air Quality AQ Index Pollutant
Not available.

Snow Depth

Station Depth Elevation

Earthquake Activity

City Distance Mag. Time & Date
Minimum magnitude displayed is 2.5.

Coastal Water Temperatures

Place Temperature

Stations

Nearby Weather Stations

Station Location Temp. Windchill Dew Point Humidity Wind Precip. Elev Updated Type
                   

Watches & Warnings

There are currently no watches in effect.